Time;durP1;ratioP1;P1;durP2;ratioP2;P2;SDS_P1;SDS_P2;PMS_P1;PMS_P2;Temp;Humidity;BMP_temperature;BMP_pressure;BME280_temperature;BME280_humidity;BME280_pressure;Samples;Min_cycle;Max_cycle;Signal;HPM_P1;HPM_P2
2023/12/05 00:01:41;;;;;;;63.80;21.42;;;;;;;;;;4902492;29;20116;-90
2023/12/05 00:04:10;;;;;;;49.72;20.27;;;;;;;;;;4895604;29;20047;-90
2023/12/05 00:06:37;;;;;;;61.97;21.27;;;;;;;;;;4898035;29;20051;-90
2023/12/05 00:09:03;;;;;;;56.72;22.98;;;;;;;;;;4911914;29;20130;-89
2023/12/05 00:11:35;;;;;;;58.88;23.90;;;;;;;;;;4907064;29;20067;-90
2023/12/05 00:14:01;;;;;;;57.30;23.17;;;;;;;;;;4914900;29;20055;-92
2023/12/05 00:16:27;;;;;;;56.92;23.13;;;;;;;;;;4899284;29;20047;-90
2023/12/05 00:18:56;;;;;;;63.53;23.98;;;;;;;;;;4893983;29;20048;-89
2023/12/05 00:21:22;;;;;;;85.90;25.85;;;;;;;;;;4898765;29;20048;-91
2023/12/05 00:23:48;;;;;;;72.55;25.63;;;;;;;;;;4904897;29;20516;-93
2023/12/05 00:26:44;;;;;;;88.60;27.20;;;;;;;;;;4899178;29;20055;-91
2023/12/05 00:29:17;;;;;;;73.43;27.05;;;;;;;;;;4907830;29;20044;-91
2023/12/05 00:31:46;;;;;;;80.85;28.10;;;;;;;;;;4889087;29;20506;-91
2023/12/05 00:34:25;;;;;;;80.30;28.95;;;;;;;;;;4907657;29;20561;-94
2023/12/05 00:36:51;;;;;;;92.07;29.58;;;;;;;;;;4907929;29;20126;-88
2023/12/05 00:39:29;;;;;;;108.00;30.77;;;;;;;;;;4911841;29;20071;-90
2023/12/05 00:41:55;;;;;;;99.20;30.58;;;;;;;;;;4904472;29;20383;-89
2023/12/05 00:44:21;;;;;;;99.13;31.10;;;;;;;;;;4896439;29;20155;-87
2023/12/05 00:46:50;;;;;;;104.18;33.00;;;;;;;;;;4918946;28;20052;-91
2023/12/05 00:49:16;;;;;;;107.72;32.20;;;;;;;;;;4905948;29;20115;-87
2023/12/05 00:54:48;;;;;;;99.25;32.20;;;;;;;;;;4888699;29;20055;-89
2023/12/05 00:57:21;;;;;;;87.80;30.27;;;;;;;;;;4887434;29;20052;-90
2023/12/05 01:00:16;;;;;;;93.13;31.08;;;;;;;;;;4919848;29;20047;-93
2023/12/05 01:02:59;;;;;;;81.55;31.15;;;;;;;;;;4898154;29;20123;-88
2023/12/05 01:05:25;;;;;;;92.60;31.80;;;;;;;;;;4900928;29;20048;-87
2023/12/05 01:08:07;;;;;;;106.40;32.92;;;;;;;;;;4893719;29;20048;-90
2023/12/05 01:10:34;;;;;;;129.25;36.83;;;;;;;;;;4898353;29;20048;-89
2023/12/05 01:13:02;;;;;;;132.07;37.95;;;;;;;;;;4895687;29;20391;-88
2023/12/05 01:15:35;;;;;;;100.22;35.20;;;;;;;;;;4898228;29;20048;-94
2023/12/05 01:18:04;;;;;;;103.78;33.63;;;;;;;;;;4905187;29;20055;-88
2023/12/05 01:20:33;;;;;;;122.90;38.17;;;;;;;;;;4917834;29;20058;-90
2023/12/05 01:22:59;;;;;;;124.93;38.63;;;;;;;;;;4912207;29;20051;-90
2023/12/05 01:25:25;;;;;;;105.32;36.17;;;;;;;;;;4909038;29;20040;-88
2023/12/05 01:27:52;;;;;;;100.80;34.47;;;;;;;;;;4923543;29;20107;-91
2023/12/05 01:30:21;;;;;;;116.38;36.33;;;;;;;;;;4924293;29;20126;-90
2023/12/05 01:32:56;;;;;;;145.30;37.53;;;;;;;;;;4921704;29;20364;-90
2023/12/05 01:35:24;;;;;;;120.30;37.55;;;;;;;;;;4899050;29;20056;-92
2023/12/05 01:38:24;;;;;;;118.45;36.22;;;;;;;;;;4899657;29;20048;-93
2023/12/05 01:40:50;;;;;;;127.68;36.63;;;;;;;;;;4899541;29;20043;-89
2023/12/05 01:43:16;;;;;;;146.40;38.45;;;;;;;;;;4899354;29;20044;-92
2023/12/05 01:45:51;;;;;;;138.43;41.08;;;;;;;;;;4893212;29;20199;-89
2023/12/05 01:48:20;;;;;;;167.20;40.33;;;;;;;;;;4904231;29;20131;-88
2023/12/05 01:50:49;;;;;;;183.40;41.22;;;;;;;;;;4909814;29;20052;-90
2023/12/05 01:53:17;;;;;;;157.23;41.10;;;;;;;;;;4905802;29;20055;-88
2023/12/05 01:55:43;;;;;;;151.15;40.03;;;;;;;;;;4907694;29;20059;-88
2023/12/05 01:58:11;;;;;;;174.48;38.85;;;;;;;;;;4901707;29;20051;-90
2023/12/05 02:00:38;;;;;;;153.40;40.95;;;;;;;;;;4905116;29;20059;-91
2023/12/05 02:03:04;;;;;;;173.13;41.70;;;;;;;;;;4900726;29;20052;-93
2023/12/05 02:05:32;;;;;;;174.95;40.92;;;;;;;;;;4899668;29;20456;-90
2023/12/05 02:07:58;;;;;;;163.27;41.78;;;;;;;;;;4899056;29;20053;-87
2023/12/05 02:10:25;;;;;;;175.95;38.45;;;;;;;;;;4898597;29;20040;-89
2023/12/05 02:12:51;;;;;;;184.18;42.08;;;;;;;;;;4901255;29;20106;-89
2023/12/05 02:15:18;;;;;;;170.15;37.53;;;;;;;;;;4901562;29;20051;-91
2023/12/05 02:17:44;;;;;;;167.43;45.03;;;;;;;;;;4891185;29;20085;-90
2023/12/05 02:20:20;;;;;;;210.38;44.45;;;;;;;;;;4890528;29;20051;-93
2023/12/05 02:22:54;;;;;;;184.75;42.13;;;;;;;;;;4893635;29;20074;-91
2023/12/05 02:25:40;;;;;;;184.90;44.10;;;;;;;;;;4912912;29;20099;-91
2023/12/05 02:28:07;;;;;;;232.60;47.67;;;;;;;;;;4891076;29;20536;-89
2023/12/05 02:30:36;;;;;;;197.75;43.88;;;;;;;;;;4908936;29;20059;-88
2023/12/05 02:33:02;;;;;;;214.23;43.08;;;;;;;;;;4900341;29;20543;-88
2023/12/05 02:35:29;;;;;;;216.50;44.78;;;;;;;;;;4917238;29;20060;-91
2023/12/05 02:38:15;;;;;;;211.02;40.97;;;;;;;;;;4880592;29;20059;-90
2023/12/05 02:40:46;;;;;;;245.85;44.58;;;;;;;;;;4885314;29;20059;-85
2023/12/05 02:43:13;;;;;;;233.77;39.70;;;;;;;;;;4909772;29;20051;-87
2023/12/05 02:45:39;;;;;;;239.95;40.88;;;;;;;;;;4880994;29;20679;-90
2023/12/05 02:48:06;;;;;;;221.30;42.65;;;;;;;;;;4897149;29;20052;-88
2023/12/05 02:50:32;;;;;;;223.10;44.03;;;;;;;;;;4880907;29;20056;-87
2023/12/05 02:52:58;;;;;;;212.27;45.80;;;;;;;;;;4898653;29;20060;-85
2023/12/05 02:55:24;;;;;;;210.82;44.38;;;;;;;;;;4886259;29;20131;-88
2023/12/05 02:57:54;;;;;;;216.10;46.85;;;;;;;;;;4879069;29;20426;-91
2023/12/05 03:00:20;;;;;;;231.52;45.17;;;;;;;;;;4877491;29;20142;-87
2023/12/05 03:02:46;;;;;;;211.07;42.70;;;;;;;;;;4881055;29;20055;-91
2023/12/05 03:05:12;;;;;;;216.27;43.17;;;;;;;;;;4890744;29;20111;-90
2023/12/05 03:07:38;;;;;;;232.40;46.13;;;;;;;;;;4882654;29;20085;-87
2023/12/05 03:10:10;;;;;;;216.93;37.90;;;;;;;;;;4889573;29;20066;-94
2023/12/05 03:12:36;;;;;;;254.10;47.70;;;;;;;;;;4893349;29;20055;-86
2023/12/05 03:15:03;;;;;;;246.35;44.75;;;;;;;;;;4898774;29;20060;-89
2023/12/05 03:17:29;;;;;;;236.65;41.05;;;;;;;;;;4921202;29;20070;-87
2023/12/05 03:19:55;;;;;;;221.88;46.80;;;;;;;;;;4893202;29;20051;-87
2023/12/05 03:22:21;;;;;;;258.38;47.40;;;;;;;;;;4885506;29;20414;-91
2023/12/05 03:24:48;;;;;;;214.32;36.63;;;;;;;;;;4903071;29;20047;-89
2023/12/05 03:27:14;;;;;;;252.73;41.97;;;;;;;;;;4915246;29;20134;-91
2023/12/05 03:29:40;;;;;;;264.05;42.08;;;;;;;;;;4887094;29;20051;-87
2023/12/05 03:32:06;;;;;;;223.68;36.50;;;;;;;;;;4894204;29;20063;-92
2023/12/05 03:34:32;;;;;;;237.27;41.05;;;;;;;;;;4886941;29;20055;-88
2023/12/05 03:36:58;;;;;;;265.60;47.83;;;;;;;;;;4891768;29;20056;-92
2023/12/05 03:39:25;;;;;;;256.83;47.33;;;;;;;;;;4890739;29;20047;-88
2023/12/05 03:41:53;;;;;;;243.82;41.30;;;;;;;;;;4884422;29;20051;-90
2023/12/05 03:44:19;;;;;;;240.25;47.83;;;;;;;;;;4881449;29;20048;-91
2023/12/05 03:46:45;;;;;;;259.95;50.67;;;;;;;;;;4876421;29;20070;-88
2023/12/05 03:49:11;;;;;;;262.33;45.72;;;;;;;;;;4887731;29;20056;-88
2023/12/05 03:51:40;;;;;;;277.92;48.58;;;;;;;;;;4887959;29;20044;-89
2023/12/05 03:54:07;;;;;;;255.07;41.53;;;;;;;;;;4903531;29;20056;-90
2023/12/05 03:56:33;;;;;;;283.30;52.58;;;;;;;;;;4916702;29;20080;-93
2023/12/05 03:59:00;;;;;;;263.52;47.40;;;;;;;;;;4894165;29;20331;-90
2023/12/05 04:01:26;;;;;;;285.23;47.75;;;;;;;;;;4902319;29;20867;-89
2023/12/05 04:03:52;;;;;;;271.25;45.45;;;;;;;;;;4888691;29;20055;-89
2023/12/05 04:06:25;;;;;;;281.35;47.47;;;;;;;;;;4894295;29;20048;-87
2023/12/05 04:08:52;;;;;;;278.13;50.20;;;;;;;;;;4894865;29;20558;-92
2023/12/05 04:11:29;;;;;;;302.63;47.38;;;-0.20;99.90;;;;;;4908758;29;20522;-86
2023/12/05 04:13:55;;;;;;;274.60;43.88;;;;;;;;;;4879569;29;20426;-89
2023/12/05 04:16:25;;;;;;;323.10;52.45;;;;;;;;;;4895178;29;20074;-89
2023/12/05 04:18:51;;;;;;;279.83;46.60;;;;;;;;;;4896713;29;20107;-91
2023/12/05 04:21:21;;;;;;;270.67;55.15;;;;;;;;;;4890472;29;20112;-90
2023/12/05 04:23:47;;;;;;;299.38;50.97;;;;;;;;;;4890780;29;20051;-89
2023/12/05 04:26:18;;;;;;;288.30;50.80;;;-0.10;99.90;;;;;;4896666;29;20361;-88
2023/12/05 04:28:44;;;;;;;297.35;52.38;;;;;;;;;;4880042;29;20052;-88
2023/12/05 04:31:11;;;;;;;318.38;50.70;;;;;;;;;;4909101;29;20047;-88
2023/12/05 04:33:39;;;;;;;311.60;51.17;;;;;;;;;;4891523;29;20128;-88
2023/12/05 04:36:08;;;;;;;285.10;43.83;;;;;;;;;;4885050;29;20052;-92
2023/12/05 04:38:35;;;;;;;301.13;48.70;;;;;;;;;;4888357;29;20047;-87
2023/12/05 04:41:02;;;;;;;296.10;46.67;;;;;;;;;;4900156;29;20044;-86
2023/12/05 04:43:28;;;;;;;267.92;45.22;;;;;;;;;;4892281;29;20111;-87
2023/12/05 04:45:54;;;;;;;274.85;47.72;;;;;;;;;;4900292;29;20048;-88
2023/12/05 04:48:23;;;;;;;285.13;41.60;;;;;;;;;;4896031;29;20052;-90
2023/12/05 04:50:49;;;;;;;303.52;47.90;;;;;;;;;;4887922;29;20700;-88
2023/12/05 04:53:15;;;;;;;294.27;47.35;;;;;;;;;;4916785;29;20416;-88
2023/12/05 04:55:42;;;;;;;265.00;42.55;;;;;;;;;;4891847;29;20069;-94
2023/12/05 04:58:08;;;;;;;320.13;48.80;;;;;;;;;;4893297;29;20087;-87
2023/12/05 05:00:37;;;;;;;285.00;42.22;;;-0.10;99.90;;;;;;4898955;29;20048;-90
2023/12/05 05:03:03;;;;;;;283.75;49.40;;;;;;;;;;4896936;29;20138;-87
2023/12/05 05:05:29;;;;;;;236.02;41.20;;;;;;;;;;4895903;29;20047;-91
2023/12/05 05:07:57;;;;;;;297.60;44.78;;;;;;;;;;4892464;29;20051;-87
2023/12/05 05:10:23;;;;;;;264.70;46.75;;;;;;;;;;4885997;29;20052;-86
2023/12/05 05:12:49;;;;;;;281.50;46.28;;;;;;;;;;4879619;29;20052;-88
2023/12/05 05:15:15;;;;;;;296.30;50.25;;;;;;;;;;4894418;29;20048;-89
2023/12/05 05:17:41;;;;;;;297.27;47.78;;;;;;;;;;4924716;29;20056;-88
2023/12/05 05:20:08;;;;;;;275.08;40.78;;;;;;;;;;4897271;29;20052;-91
2023/12/05 05:22:35;;;;;;;261.30;46.70;;;;;;;;;;4887947;29;20056;-88
2023/12/05 05:25:01;;;;;;;250.43;46.58;;;;;;;;;;4907859;29;20131;-85
2023/12/05 05:27:27;;;;;;;315.17;44.35;;;;;;;;;;4887453;29;20047;-87
2023/12/05 05:29:53;;;;;;;315.65;49.17;;;;;;;;;;4930132;29;20039;-87
2023/12/05 05:32:19;;;;;;;252.15;40.38;;;;;;;;;;4893756;29;20048;-87
2023/12/05 05:34:45;;;;;;;286.52;48.17;;;;;;;;;;4897491;29;20091;-89
2023/12/05 05:37:11;;;;;;;281.65;41.92;;;;;;;;;;4897305;29;20074;-94
2023/12/05 05:39:38;;;;;;;296.27;44.50;;;;;;;;;;4887155;29;20510;-85
2023/12/05 05:42:04;;;;;;;230.10;37.47;;;;;;;;;;4883599;29;20047;-89
2023/12/05 05:44:30;;;;;;;293.92;48.10;;;;;;;;;;4902369;29;20051;-90
2023/12/05 05:46:56;;;;;;;276.48;41.85;;;;;;;;;;4926745;29;20055;-87
2023/12/05 05:49:22;;;;;;;270.05;43.55;;;;;;;;;;4935095;29;20059;-85
2023/12/05 05:51:50;;;;;;;303.88;43.47;;;;;;;;;;4901506;29;20115;-91
2023/12/05 05:54:16;;;;;;;236.02;43.58;;;;;;;;;;4892950;29;20052;-87
2023/12/05 05:56:46;;;;;;;250.50;46.40;;;;;;;;;;4880577;29;20071;-85
2023/12/05 05:59:15;;;;;;;284.20;43.85;;;;;;;;;;4879973;29;20063;-88
2023/12/05 06:01:41;;;;;;;288.65;47.22;;;;;;;;;;4884457;29;20111;-86
2023/12/05 06:04:07;;;;;;;306.80;50.25;;;-0.20;99.90;;;;;;4892131;29;20056;-90
2023/12/05 06:06:33;;;;;;;262.65;42.72;;;;;;;;;;4891202;29;20059;-91
2023/12/05 06:08:59;;;;;;;282.88;49.20;;;;;;;;;;4883590;29;20083;-89
2023/12/05 06:11:25;;;;;;;249.40;46.08;;;;;;;;;;4890098;29;20052;-86
2023/12/05 06:13:51;;;;;;;293.17;45.92;;;;;;;;;;4896047;29;20131;-90
2023/12/05 06:16:18;;;;;;;261.65;42.97;;;;;;;;;;4900758;29;20384;-88
2023/12/05 06:18:46;;;;;;;284.92;38.45;;;;;;;;;;4890327;29;20056;-86
2023/12/05 06:21:12;;;;;;;254.30;40.30;;;;;;;;;;4892791;29;20586;-91
2023/12/05 06:23:38;;;;;;;263.85;44.78;;;;;;;;;;4883298;29;20566;-88
2023/12/05 06:26:05;;;;;;;261.10;45.88;;;;;;;;;;4925844;29;20071;-90
2023/12/05 06:28:31;;;;;;;297.67;49.08;;;;;;;;;;4891564;29;20087;-85
2023/12/05 06:30:57;;;;;;;297.88;50.13;;;;;;;;;;4894321;29;20044;-86
2023/12/05 06:33:23;;;;;;;256.23;47.92;;;;;;;;;;4895589;29;20056;-89
2023/12/05 06:35:49;;;;;;;298.90;48.90;;;;;;;;;;4899166;29;20094;-88
2023/12/05 06:38:15;;;;;;;243.55;44.83;;;;;;;;;;4883265;29;20138;-91
2023/12/05 06:40:44;;;;;;;298.52;46.72;;;;;;;;;;4879489;29;20098;-95
2023/12/05 06:43:10;;;;;;;260.13;46.78;;;;;;;;;;4888661;29;20071;-88
2023/12/05 06:45:37;;;;;;;270.77;40.85;;;;;;;;;;4887492;29;20110;-90
2023/12/05 06:48:03;;;;;;;292.17;46.10;;;;;;;;;;4898365;29;20051;-91
2023/12/05 06:50:29;;;;;;;254.13;41.17;;;;;;;;;;4896522;29;20107;-89
2023/12/05 06:52:57;;;;;;;236.65;48.05;;;;;;;;;;4888374;29;20059;-86
2023/12/05 06:55:27;;;;;;;302.85;49.00;;;-0.20;99.90;;;;;;4898599;29;20525;-87
2023/12/05 06:57:53;;;;;;;276.10;42.22;;;;;;;;;;4887610;29;20175;-88
2023/12/05 07:00:19;;;;;;;240.68;41.00;;;;;;;;;;4890969;29;20509;-87
2023/12/05 07:02:45;;;;;;;298.92;44.28;;;;;;;;;;4890236;29;20052;-87
2023/12/05 07:05:11;;;;;;;280.92;46.65;;;;;;;;;;4893967;29;20087;-87
2023/12/05 07:07:38;;;;;;;291.73;43.83;;;;;;;;;;4910376;29;20098;-87
2023/12/05 07:10:05;;;;;;;266.60;47.88;;;;;;;;;;4885992;29;20477;-90
2023/12/05 07:12:35;;;;;;;251.75;37.42;;;;;;;;;;4893903;29;20052;-91
2023/12/05 07:15:01;;;;;;;294.83;45.30;;;;;;;;;;4886196;29;20051;-87
2023/12/05 07:17:27;;;;;;;280.40;46.28;;;;;;;;;;4907620;29;20093;-85
2023/12/05 07:19:53;;;;;;;295.55;46.60;;;;;;;;;;4900255;29;20472;-87
2023/12/05 07:22:20;;;;;;;275.48;45.35;;;;;;;;;;4894583;29;20052;-87
2023/12/05 07:24:49;;;;;;;276.95;44.58;;;;;;;;;;4896919;29;20383;-90
2023/12/05 07:27:24;;;;;;;304.30;48.90;;;;;;;;;;4898484;29;20111;-91
2023/12/05 07:29:51;;;;;;;267.17;45.22;;;;;;;;;;4890076;29;20054;-89
2023/12/05 07:32:17;;;;;;;333.05;50.08;;;;;;;;;;4900943;29;20043;-91
2023/12/05 07:34:49;;;;;;;305.80;50.55;;;;;;;;;;4885792;29;20060;-94
2023/12/05 07:37:15;;;;;;;;;;;;;;;;;;4914839;29;20703;-89
2023/12/05 07:39:41;;;;;;;264.20;46.05;;;;;;;;;;4886733;29;19919;-91
2023/12/05 07:42:07;;;;;;;254.90;44.03;;;;;;;;;;4877945;29;20047;-86
2023/12/05 07:44:33;;;;;;;285.08;44.35;;;;;;;;;;4883946;29;20512;-89
2023/12/05 07:47:00;;;;;;;293.75;51.35;;;;;;;;;;4877825;29;20047;-90
2023/12/05 07:49:26;;;;;;;307.90;46.75;;;;;;;;;;4909785;29;20080;-90
2023/12/05 07:51:53;;;;;;;283.85;48.63;;;;;;;;;;4899333;29;20092;-91
2023/12/05 07:54:19;;;;;;;271.75;49.03;;;;;;;;;;4900352;29;20048;-91
2023/12/05 07:56:48;;;;;;;294.05;49.70;;;;;;;;;;4909988;29;20040;-85
2023/12/05 07:59:14;;;;;;;277.10;48.22;;;;;;;;;;4914456;29;20051;-85
2023/12/05 08:01:42;;;;;;;300.17;47.85;;;;;;;;;;4919812;29;20096;-88
2023/12/05 08:04:11;;;;;;;287.58;49.22;;;-0.10;99.90;;;;;;4924490;29;20079;-90
2023/12/05 08:06:38;;;;;;;338.90;49.35;;;;;;;;;;4898662;29;20130;-89
2023/12/05 08:09:04;;;;;;;292.13;45.25;;;;;;;;;;4894477;29;20100;-92
2023/12/05 08:11:35;;;;;;;313.17;42.22;;;;;;;;;;4903740;29;20138;-90
2023/12/05 08:14:02;;;;;;;305.02;46.13;;;;;;;;;;4891046;29;20051;-85
2023/12/05 08:16:28;;;;;;;278.60;47.78;;;;;;;;;;4885413;29;20047;-92
2023/12/05 08:18:54;;;;;;;256.63;48.28;;;;;;;;;;4898122;29;20059;-89
2023/12/05 08:21:20;;;;;;;300.48;49.22;;;;;;;;;;4889251;29;20060;-87
2023/12/05 08:23:49;;;;;;;271.73;46.80;;;;;;;;;;4905950;29;20055;-96
2023/12/05 08:26:15;;;;;;;285.08;50.20;;;;;;;;;;4886663;29;20055;-88
2023/12/05 08:28:41;;;;;;;269.08;45.03;;;;;;;;;;4891928;29;20087;-87
2023/12/05 08:31:07;;;;;;;294.40;49.30;;;;;;;;;;4900091;29;20087;-91
2023/12/05 08:33:33;;;;;;;282.33;42.20;;;;;;;;;;4919371;29;20055;-92
2023/12/05 08:36:01;;;;;;;299.27;44.83;;;;;;;;;;4912916;29;20151;-92
2023/12/05 08:38:27;;;;;;;327.80;50.67;;;;;;;;;;4921607;29;20600;-91
2023/12/05 08:40:53;;;;;;;304.08;44.65;;;;;;;;;;4912809;29;20830;-86
2023/12/05 08:43:19;;;;;;;326.75;50.67;;;;;;;;;;4891934;29;20111;-90
2023/12/05 08:45:46;;;;;;;302.55;52.42;;;;;;;;;;4892978;29;20050;-88
2023/12/05 08:48:12;;;;;;;306.42;48.72;;;;;;;;;;4895518;29;20052;-89
2023/12/05 08:50:39;;;;;;;292.83;43.03;;;;;;;;;;4914191;29;20091;-86
2023/12/05 08:53:08;;;;;;;271.23;49.90;;;;;;;;;;4885538;29;20048;-89
2023/12/05 08:55:35;;;;;;;314.75;48.80;;;;;;;;;;4899885;29;20047;-92
2023/12/05 08:58:04;;;;;;;259.13;51.53;;;;;;;;;;4910984;29;20062;-87
2023/12/05 09:00:30;;;;;;;297.17;51.35;;;;;;;;;;4900498;29;20071;-92
2023/12/05 09:03:00;;;;;;;312.58;52.30;;;;;;;;;;4910846;29;20541;-93
2023/12/05 09:05:32;;;;;;;280.08;48.72;;;;;;;;;;4895226;29;20116;-93
2023/12/05 09:08:00;;;;;;;294.92;53.20;;;;;;;;;;4915095;29;20048;-88
2023/12/05 09:10:27;;;;;;;290.48;47.60;;;;;;;;;;4915714;29;20052;-93
2023/12/05 09:12:53;;;;;;;331.55;53.03;;;;;;;;;;4913183;29;20062;-88
2023/12/05 09:15:20;;;;;;;340.45;52.53;;;;;;;;;;4911426;29;20051;-90
2023/12/05 09:17:46;;;;;;;301.13;49.38;;;;;;;;;;4906875;29;20040;-89
2023/12/05 09:20:12;;;;;;;324.48;52.70;;;;;;;;;;4895144;29;20131;-92
2023/12/05 09:22:38;;;;;;;314.58;50.17;;;;;;;;;;4895113;29;20111;-92
2023/12/05 09:25:06;;;;;;;299.25;53.38;;;0.00;99.90;;;;;;4893373;29;20048;-91
2023/12/05 09:27:33;;;;;;;335.73;52.45;;;;;;;;;;4894052;29;20059;-89
2023/12/05 09:29:59;;;;;;;330.73;52.05;;;;;;;;;;4908182;29;20056;-92
2023/12/05 09:32:25;;;;;;;282.80;49.40;;;;;;;;;;4896853;29;20052;-95
2023/12/05 09:34:52;;;;;;;280.67;52.30;;;;;;;;;;4897619;29;20056;-90
2023/12/05 09:37:21;;;;;;;294.52;51.30;;;;;;;;;;4910699;29;20051;-92
2023/12/05 09:39:47;;;;;;;321.13;52.67;;;;;;;;;;4914392;29;20055;-93
2023/12/05 09:42:16;;;;;;;345.73;54.13;;;;;;;;;;4888452;29;20575;-95
2023/12/05 09:44:46;;;;;;;305.70;52.60;;;;;;;;;;4886379;29;20778;-89
2023/12/05 09:47:16;;;;;;;301.65;48.90;;;;;;;;;;4893374;29;20052;-92
2023/12/05 09:49:43;;;;;;;321.50;54.20;;;;;;;;;;4890751;29;20056;-91
2023/12/05 09:52:09;;;;;;;300.60;52.80;;;;;;;;;;4884623;29;20417;-94
2023/12/05 09:54:35;;;;;;;346.90;54.53;;;;;;;;;;4896834;29;20061;-89
2023/12/05 09:57:03;;;;;;;346.58;55.45;;;0.10;99.90;;;;;;4905082;29;20072;-91
2023/12/05 09:59:30;;;;;;;306.33;53.05;;;;;;;;;;4916953;29;20050;-89
2023/12/05 10:02:01;;;;;;;335.08;53.63;;;0.00;99.90;;;;;;4905292;29;20071;-94
2023/12/05 10:04:29;;;;;;;328.90;52.75;;;;;;;;;;4910221;29;20052;-92
2023/12/05 10:06:58;;;;;;;344.98;54.53;;;0.00;99.90;;;;;;4893593;29;20043;-92
2023/12/05 10:09:26;;;;;;;354.58;53.60;;;;;;;;;;4903949;29;20075;-90
2023/12/05 10:11:52;;;;;;;351.23;54.03;;;;;;;;;;4895165;29;20104;-92
2023/12/05 10:14:19;;;;;;;335.95;56.15;;;;;;;;;;4887340;29;20044;-90
2023/12/05 10:16:45;;;;;;;351.73;57.00;;;;;;;;;;4894562;29;20059;-93
2023/12/05 10:19:14;;;;;;;353.85;51.85;;;;;;;;;;4895870;29;20135;-93
2023/12/05 10:21:40;;;;;;;302.17;43.15;;;;;;;;;;4893000;29;20063;-90
2023/12/05 10:24:06;;;;;;;325.70;47.80;;;;;;;;;;4892124;29;20052;-85
2023/12/05 10:26:43;;;;;;;347.02;52.35;;;0.20;99.90;;;;;;4896730;29;20197;-92
2023/12/05 10:29:09;;;;;;;375.90;53.95;;;;;;;;;;4917171;29;20059;-89
2023/12/05 10:31:35;;;;;;;335.35;48.38;;;;;;;;;;4915859;29;20494;-87
2023/12/05 10:34:08;;;;;;;336.63;44.80;;;;;;;;;;4886987;29;20111;-92
2023/12/05 10:36:36;;;;;;;342.35;52.58;;;;;;;;;;4883896;29;20818;-91
2023/12/05 10:39:04;;;;;;;339.83;55.53;;;;;;;;;;4885501;29;20570;-93
2023/12/05 10:41:32;;;;;;;315.30;56.10;;;;;;;;;;4895789;29;20056;-89
2023/12/05 10:44:02;;;;;;;381.33;55.78;;;;;;;;;;4889677;29;20052;-91
2023/12/05 10:46:28;;;;;;;325.33;56.38;;;;;;;;;;4904592;29;20052;-94
2023/12/05 10:48:55;;;;;;;350.05;54.67;;;;;;;;;;4907052;29;20087;-90
2023/12/05 10:51:26;;;;;;;331.52;53.85;;;;;;;;;;4880693;29;20482;-92
2023/12/05 10:53:55;;;;;;;390.55;55.05;;;;;;;;;;4886749;29;20055;-93
2023/12/05 10:56:31;;;;;;;;;;;0.10;99.90;;;;;;4887246;29;20098;-92
2023/12/05 10:58:58;;;;;;;309.63;40.75;;;;;;;;;;4903840;29;19969;-92
2023/12/05 11:01:26;;;;;;;332.17;53.72;;;;;;;;;;4919509;29;20062;-92
2023/12/05 11:03:52;;;;;;;352.98;54.50;;;;;;;;;;4903875;29;20051;-92
2023/12/05 11:06:19;;;;;;;368.15;52.60;;;;;;;;;;4894832;29;20044;-93
2023/12/05 11:08:45;;;;;;;412.50;55.78;;;;;;;;;;4890830;29;20809;-91
2023/12/05 11:11:13;;;;;;;366.60;55.88;;;;;;;;;;4905393;29;20051;-94
2023/12/05 11:13:43;;;;;;;356.40;56.47;;;;;;;;;;4886714;29;20092;-92
2023/12/05 11:16:25;;;;;;;321.08;55.50;;;;;;;;;;4896153;29;20044;-91
2023/12/05 11:18:58;;;;;;;368.90;52.63;;;;;;;;;;4890864;29;20055;-91
2023/12/05 11:21:43;;;;;;;330.15;56.92;;;;;;;;;;4890007;29;20528;-93
2023/12/05 11:24:29;;;;;;;370.35;54.22;;;;;;;;;;4901520;29;20127;-91
2023/12/05 11:27:03;;;;;;;313.73;55.80;;;;;;;;;;4892473;29;20398;-93
2023/12/05 11:29:44;;;;;;;339.20;57.28;;;;;;;;;;4900165;29;20062;-92
2023/12/05 11:32:13;;;;;;;357.27;56.05;;;;;;;;;;4894968;29;20055;-94
2023/12/05 11:34:42;;;;;;;393.95;57.03;;;;;;;;;;4898824;29;20184;-94
2023/12/05 11:37:15;;;;;;;333.98;55.03;;;;;;;;;;4885271;29;20044;-93
2023/12/05 11:39:44;;;;;;;377.58;54.58;;;;;;;;;;4887018;29;20044;-92
2023/12/05 11:42:14;;;;;;;349.35;54.70;;;;;;;;;;4903290;29;20131;-91
2023/12/05 11:44:47;;;;;;;349.15;52.65;;;;;;;;;;4898923;29;20142;-91
2023/12/05 11:47:24;;;;;;;360.95;49.80;;;;;;;;;;4895140;29;20493;-93
2023/12/05 11:49:55;;;;;;;328.98;54.42;;;;;;;;;;4897355;29;20082;-90
2023/12/05 11:52:22;;;;;;;366.13;54.87;;;;;;;;;;4912122;29;20084;-88
2023/12/05 11:54:52;;;;;;;359.63;53.47;;;;;;;;;;4893730;29;20084;-94
2023/12/05 11:57:27;;;;;;;325.98;49.75;;;;;;;;;;4896448;29;20599;-94
2023/12/05 11:59:54;;;;;;;379.13;56.92;;;;;;;;;;4893802;29;20052;-94
2023/12/05 12:02:32;;;;;;;372.15;55.85;;;;;;;;;;4899265;29;20052;-90
2023/12/05 12:05:11;;;;;;;336.30;55.58;;;;;;;;;;4913470;29;20083;-95
2023/12/05 12:07:52;;;;;;;380.42;57.28;;;;;;;;;;4919644;29;20032;-92
2023/12/05 12:10:23;;;;;;;363.35;56.67;;;;;;;;;;4915395;29;20056;-89
2023/12/05 12:12:55;;;;;;;363.65;55.55;;;;;;;;;;4910014;29;20066;-94
2023/12/05 12:15:37;;;;;;;388.45;54.83;;;;;;;;;;4911333;29;20052;-95
2023/12/05 12:18:03;;;;;;;361.17;53.13;;;;;;;;;;4888461;29;20108;-92
2023/12/05 12:20:38;;;;;;;345.20;52.47;;;;;;;;;;4904170;29;20048;-95
2023/12/05 12:23:04;;;;;;;340.67;54.15;;;;;;;;;;4895773;29;20151;-92
2023/12/05 12:25:34;;;;;;;369.92;55.20;;;;;;;;;;4894933;29;20052;-94
2023/12/05 12:28:00;;;;;;;382.42;55.22;;;;;;;;;;4917031;29;20047;-94
2023/12/05 12:30:34;;;;;;;374.45;53.42;;;0.10;99.90;;;;;;4895529;29;20040;-92
2023/12/05 12:33:05;;;;;;;372.42;55.15;;;;;;;;;;4907414;29;20149;-95
2023/12/05 12:35:31;;;;;;;344.67;50.53;;;;;;;;;;4904922;29;20051;-95
2023/12/05 12:37:58;;;;;;;369.90;54.50;;;;;;;;;;4897248;29;20059;-94
2023/12/05 12:40:24;;;;;;;350.48;53.30;;;;;;;;;;4932933;29;20808;-94
2023/12/05 12:42:54;;;;;;;322.73;55.90;;;;;;;;;;4894493;29;20116;-92
2023/12/05 12:45:20;;;;;;;360.90;57.22;;;;;;;;;;4894244;29;20048;-91
2023/12/05 12:47:51;;;;;;;391.48;60.63;;;;;;;;;;4907147;29;20382;-94
2023/12/05 12:50:17;;;;;;;346.42;55.28;;;;;;;;;;4905693;29;20123;-88
2023/12/05 12:52:44;;;;;;;350.08;54.17;;;;;;;;;;4898188;29;20071;-89
2023/12/05 12:55:11;;;;;;;312.63;56.25;;;;;;;;;;4902338;29;20055;-92
2023/12/05 12:57:37;;;;;;;318.33;52.88;;;;;;;;;;4900642;29;20308;-91
2023/12/05 13:00:04;;;;;;;322.35;53.35;;;;;;;;;;4898592;29;20509;-93
2023/12/05 13:02:37;;;;;;;368.02;57.83;;;;;;;;;;4890431;29;20517;-92
2023/12/05 13:05:05;;;;;;;313.65;55.38;;;;;;;;;;4888708;29;20052;-92
2023/12/05 13:07:31;;;;;;;331.27;55.22;;;;;;;;;;4897797;29;20884;-89
2023/12/05 13:09:58;;;;;;;300.17;54.63;;;;;;;;;;4900045;29;20601;-90
2023/12/05 13:12:25;;;;;;;347.27;54.90;;;;;;;;;;4906105;29;20544;-90
2023/12/05 13:14:51;;;;;;;331.08;53.75;;;0.20;99.90;;;;;;4895464;29;20596;-90
2023/12/05 13:17:18;;;;;;;341.10;52.45;;;0.00;99.90;;;;;;4918587;29;20545;-90
2023/12/05 13:19:44;;;;;;;311.40;55.63;;;;;;;;;;4917855;29;20051;-92
2023/12/05 13:22:10;;;;;;;342.45;51.97;;;;;;;;;;4899859;29;20082;-93
2023/12/05 13:24:37;;;;;;;356.17;56.03;;;;;;;;;;4918943;29;20553;-93
2023/12/05 13:27:03;;;;;;;348.80;57.67;;;;;;;;;;4904814;29;20454;-90
2023/12/05 13:29:29;;;;;;;326.15;57.08;;;;;;;;;;4898774;29;20406;-91
2023/12/05 13:31:58;;;;;;;361.67;56.85;;;;;;;;;;4888620;29;20059;-95
2023/12/05 13:34:24;;;;;;;365.58;56.47;;;;;;;;;;4894269;29;20059;-90
2023/12/05 13:36:50;;;;;;;337.33;55.20;;;;;;;;;;4883801;29;20091;-90
2023/12/05 13:39:17;;;;;;;344.30;52.20;;;;;;;;;;4886674;29;20078;-92
2023/12/05 13:41:43;;;;;;;359.27;53.15;;;;;;;;;;4885644;29;20174;-91
2023/12/05 13:44:09;;;;;;;346.08;56.30;;;;;;;;;;4900336;29;20099;-93
2023/12/05 13:46:36;;;;;;;352.85;53.72;;;;;;;;;;4913190;29;20088;-92
2023/12/05 13:49:04;;;;;;;380.10;51.72;;;;;;;;;;4886261;29;20040;-89
2023/12/05 13:51:31;;;;;;;331.35;56.35;;;0.00;99.90;;;;;;4897648;29;20043;-92
2023/12/05 13:54:00;;;;;;;306.52;55.67;;;;;;;;;;4893345;29;20060;-90
2023/12/05 13:56:28;;;;;;;320.70;54.60;;;;;;;;;;4901619;29;20048;-91
2023/12/05 13:58:55;;;;;;;339.40;56.03;;;;;;;;;;4886374;29;20084;-89
2023/12/05 14:01:21;;;;;;;385.00;51.03;;;;;;;;;;4891643;29;20771;-92
2023/12/05 14:03:47;;;;;;;355.33;53.35;;;;;;;;;;4903292;29;20090;-90
2023/12/05 14:06:13;;;;;;;331.65;57.53;;;;;;;;;;4904318;29;20349;-89
2023/12/05 14:08:40;;;;;;;349.90;48.28;;;;;;;;;;4894127;29;20082;-90
2023/12/05 14:11:28;;;;;;;343.95;55.10;;;;;;;;;;4894986;29;20048;-91